Time;durP1;ratioP1;P1;durP2;ratioP2;P2;SDS_P1;SDS_P2;PMS_P1;PMS_P2;Temp;Humidity;BMP_temperature;BMP_pressure;BME280_temperature;BME280_humidity;BME280_pressure;Samples;Min_cycle;Max_cycle;Signal;HPM_P1;HPM_P2
2021/12/19 00:01:08;;;;;;;5.60;5.10;;;;;;;0.14;65.41;95487.91;5121672;28;20226;-64
2021/12/19 00:04:25;;;;;;;5.60;5.10;;;;;;;0.13;65.33;95475.88;5120727;27;20245;-63
2021/12/19 00:09:06;;;;;;;5.67;5.07;;;;;;;0.03;65.63;95472.91;5119732;28;20254;-63
2021/12/19 00:11:32;;;;;;;5.30;4.60;;;;;;;-0.07;65.90;95482.88;5121249;28;20282;-62
2021/12/19 00:13:59;;;;;;;6.23;5.63;;;;;;;-0.11;66.14;95478.75;5120722;28;20247;-61
2021/12/19 00:16:25;;;;;;;6.00;5.27;;;;;;;-0.16;65.95;95477.31;5119320;28;20227;-62
2021/12/19 00:18:52;;;;;;;6.17;5.20;;;;;;;-0.14;66.39;95478.09;5120116;28;20249;-61
2021/12/19 00:21:19;;;;;;;6.60;5.30;;;;;;;-0.15;66.43;95474.66;5120199;28;20307;-63
2021/12/19 00:23:47;;;;;;;5.80;5.30;;;;;;;-0.14;66.49;95475.50;5119289;27;20208;-63
2021/12/19 00:26:13;;;;;;;6.43;5.77;;;;;;;-0.15;66.54;95474.66;5118500;28;20206;-62
2021/12/19 00:28:39;;;;;;;5.67;5.03;;;;;;;-0.28;66.78;95466.69;5119714;27;20230;-65
2021/12/19 00:31:05;;;;;;;5.67;5.17;;;;;;;-0.34;66.68;95455.81;5117398;28;20223;-62
2021/12/19 00:33:31;;;;;;;6.70;6.00;;;;;;;-0.34;66.83;95464.41;5119491;28;20290;-65
2021/12/19 00:35:57;;;;;;;5.73;5.20;;;;;;;-0.41;67.24;95467.34;5120586;28;20238;-62
2021/12/19 00:38:23;;;;;;;6.47;5.87;;;;;;;-0.38;67.53;95473.19;5123080;28;20215;-61
2021/12/19 00:40:48;;;;;;;6.77;5.93;;;;;;;-0.42;67.80;95471.69;5117514;28;20306;-63
2021/12/19 00:46:11;;;;;;;5.90;5.37;;;;;;;-0.57;68.20;95472.41;5057208;28;20224;-62
2021/12/19 00:48:42;;;;;;;6.43;5.73;;;;;;;-0.68;68.88;95476.34;5041864;28;20221;-62
2021/12/19 00:51:10;;;;;;;7.37;6.60;;;;;;;-0.71;69.60;95475.66;5042084;28;20225;-67
2021/12/19 00:53:35;;;;;;;6.33;5.73;;;;;;;-0.67;69.02;95462.53;5055681;28;20215;-64
2021/12/19 00:56:02;;;;;;;7.10;6.40;;;;;;;-0.68;69.15;95460.00;5060634;28;20280;-63
2021/12/19 00:58:28;;;;;;;7.40;6.70;;;;;;;-0.67;69.27;95461.69;5041682;28;20229;-63
2021/12/19 01:00:54;;;;;;;6.30;5.80;;;;;;;-0.68;69.03;95455.69;5039844;28;20248;-64
2021/12/19 01:03:21;;;;;;;7.17;6.30;;;;;;;-0.67;69.22;95451.34;5056360;28;20229;-61
2021/12/19 01:05:47;;;;;;;7.03;6.33;;;;;;;-0.72;69.45;95448.19;5058074;28;20221;-61
2021/12/19 01:08:13;;;;;;;6.73;6.10;;;;;;;-0.72;69.18;95440.44;5042282;28;20212;-62
2021/12/19 01:10:41;;;;;;;7.70;6.87;;;;;;;-0.70;69.29;95436.00;5057075;28;20221;-63
2021/12/19 01:13:06;;;;;;;7.80;6.40;;;;;;;-0.79;69.65;95442.44;5057765;28;20221;-62
2021/12/19 01:15:32;;;;;;;7.10;6.40;;;;;;;-0.71;69.27;95431.75;5041686;28;20229;-62
2021/12/19 01:17:59;;;;;;;7.80;7.03;;;;;;;-0.76;69.59;95434.56;5059030;28;20224;-64
2021/12/19 01:20:28;;;;;;;7.10;6.50;;;;;;;-0.82;69.69;95427.09;5056260;28;20213;-63
2021/12/19 01:22:54;;;;;;;7.97;6.93;;;;;;;-0.83;70.00;95432.34;5094008;28;20223;-62
2021/12/19 01:25:20;;;;;;;7.73;6.70;;;;;;;-0.82;69.99;95427.09;5120661;28;20488;-62
2021/12/19 01:27:46;;;;;;;8.07;7.17;;;;;;;-0.79;69.75;95431.28;5124988;28;20219;-65
2021/12/19 01:30:13;;;;;;;6.87;6.27;;;;;;;-0.72;69.62;95427.53;5149692;27;20219;-65
2021/12/19 01:32:39;;;;;;;7.00;6.37;;;;;;;-0.67;69.48;95420.34;5120828;28;20211;-66
2021/12/19 01:35:06;;;;;;;7.30;6.60;;;;;;;-0.61;69.04;95424.41;5124613;28;20237;-63
2021/12/19 01:37:32;;;;;;;7.30;6.60;;;;;;;-0.76;69.59;95413.06;5122522;28;20229;-64
2021/12/19 01:39:58;;;;;;;7.67;6.87;;;;;;;-0.79;69.35;95420.97;5122261;28;20275;-64
2021/12/19 01:42:33;;;;;;;8.33;6.60;;;;;;;-0.87;69.54;95408.41;5121870;28;20279;-66
2021/12/19 01:44:59;;;;;;;7.47;6.63;;;;;;;-0.87;69.64;95408.41;5121785;28;20234;-63
2021/12/19 01:47:26;;;;;;;8.13;6.50;;;;;;;-0.87;69.26;95407.59;5122958;28;20211;-64
2021/12/19 01:49:52;;;;;;;6.63;6.03;;;;;;;-0.83;69.03;95401.34;5122945;28;20239;-62
2021/12/19 01:52:18;;;;;;;6.90;6.30;;;;;;;-0.71;68.83;95390.44;5120645;28;20223;-62
2021/12/19 01:54:45;;;;;;;6.53;5.83;;;;;;;-0.65;68.46;95403.03;5121277;28;20290;-63
2021/12/19 01:57:11;;;;;;;6.97;6.17;;;;;;;-0.69;68.37;95389.47;5138272;27;20243;-62
2021/12/19 01:59:37;;;;;;;7.20;6.50;;;;;;;-0.73;69.07;95387.91;5122413;27;20213;-64
2021/12/19 02:02:03;;;;;;;6.97;6.37;;;;;;;-0.66;68.83;95388.47;5122853;28;20270;-62
2021/12/19 02:04:30;;;;;;;6.60;6.00;;;;;;;-0.64;68.79;95384.06;5123930;28;20216;-64
2021/12/19 02:06:58;;;;;;;6.90;6.20;;;;;;;-0.59;68.70;95379.50;5121051;28;20290;-63
2021/12/19 02:09:24;;;;;;;6.57;5.97;;;;;;;-0.52;68.51;95382.63;5122092;28;20313;-62
2021/12/19 02:11:51;;;;;;;6.60;5.90;;;;;;;-0.46;67.91;95382.31;5123159;27;20272;-62
2021/12/19 02:14:17;;;;;;;6.73;6.03;;;;;;;-0.50;67.71;95376.47;5123597;28;20203;-63
2021/12/19 02:16:43;;;;;;;7.57;6.10;;;;;;;-0.51;67.79;95371.38;5120600;28;20203;-65
2021/12/19 02:19:09;;;;;;;6.93;6.23;;;;;;;-0.48;67.92;95379.81;5123720;28;20215;-63
2021/12/19 02:21:35;;;;;;;7.30;6.60;;;;;;;-0.37;67.32;95368.13;5120610;28;20271;-66
2021/12/19 02:24:04;;;;;;;6.37;5.77;;;;;;;-0.40;67.41;95376.00;5123687;28;20207;-65
2021/12/19 02:26:29;;;;;;;7.13;6.43;;;;;;;-0.41;67.57;95372.59;5122377;28;20203;-63
2021/12/19 02:28:55;;;;;;;6.60;6.00;;;;;;;-0.45;68.19;95359.00;5122282;28;20364;-61
2021/12/19 02:31:22;;;;;;;7.30;6.63;;;;;;;-0.36;67.92;95372.38;5120028;28;20219;-62
2021/12/19 02:34:25;;;;;;;7.40;6.70;;;;;;;-0.40;67.85;95365.66;5121362;28;20241;-62
2021/12/19 02:50:26;;;;;;;7.87;7.17;;;;;;;-0.41;68.33;95356.25;5120640;28;20221;-63
2021/12/19 02:52:53;;;;;;;7.30;6.70;;;;;;;-0.35;68.06;95356.78;5121835;28;20214;-63
2021/12/19 02:55:18;;;;;;;7.40;6.80;;;;;;;-0.42;68.58;95358.00;5123545;28;20211;-64
2021/12/19 02:57:47;;;;;;;7.87;6.53;;;;;;;-0.51;68.85;95354.16;5123609;28;20274;-62
2021/12/19 03:00:18;;;;;;;8.23;7.13;;;;;;;-0.49;69.07;95354.06;5123012;27;20214;-63
2021/12/19 03:02:43;;;;;;;8.10;7.30;;;;;;;-0.54;68.97;95348.28;5121250;27;20207;-62
2021/12/19 03:05:09;;;;;;;7.37;6.67;;;;;;;-0.56;69.20;95350.97;5121901;28;20337;-63
2021/12/19 03:07:40;;;;;;;7.63;6.93;;;;;;;-0.48;69.07;95343.66;5122803;28;20260;-63
2021/12/19 03:18:10;;;;;;;7.77;6.57;;;;;;;-0.42;69.19;95346.84;5120715;28;20249;-62
2021/12/19 03:20:38;;;;;;;7.60;6.80;;;;;;;-0.45;69.21;95340.91;5119005;28;20192;-63
2021/12/19 03:23:05;;;;;;;7.60;6.87;;;;;;;-0.39;68.90;95354.44;5117475;28;20211;-62
2021/12/19 03:25:31;;;;;;;7.30;6.60;;;;;;;-0.43;68.59;95347.75;5118861;28;20246;-65
2021/12/19 03:27:59;;;;;;;7.50;6.80;;;;;;;-0.31;68.54;95347.13;5122955;28;20242;-63
2021/12/19 03:30:24;;;;;;;7.33;6.60;;;;;;;-0.38;68.43;95351.75;5121229;28;20242;-63
2021/12/19 03:32:50;;;;;;;7.83;6.63;;;;;;;-0.45;68.42;95347.84;5123554;28;20223;-65
2021/12/19 03:35:16;;;;;;;7.13;6.40;;;;;;;-0.47;68.66;95339.31;5121134;28;20199;-65
2021/12/19 03:37:43;;;;;;;7.27;6.57;;;;;;;-0.54;68.75;95340.53;5118044;28;20226;-62
2021/12/19 03:40:12;;;;;;;6.83;6.23;;;;;;;-0.50;68.65;95340.31;5122584;28;20259;-62
2021/12/19 03:42:43;;;;;;;7.10;6.40;;;;;;;-0.57;68.63;95341.53;5121611;28;20283;-63
2021/12/19 03:45:12;;;;;;;7.23;6.53;;;;;;;-0.56;68.72;95340.63;5119987;28;20294;-63
2021/12/19 03:47:38;;;;;;;6.63;5.93;;;;;;;-0.55;68.46;95333.72;5120658;28;20226;-62
2021/12/19 03:50:06;;;;;;;6.73;6.13;;;;;;;-0.62;68.49;95346.06;5123760;28;20256;-64
2021/12/19 03:52:32;;;;;;;7.03;6.43;;;;;;;-0.79;68.66;95334.00;5122081;28;20222;-63
2021/12/19 03:54:58;;;;;;;6.73;6.10;;;;;;;-0.83;68.91;95329.06;5119063;28;20215;-62
2021/12/19 03:57:23;;;;;;;7.33;6.63;;;;;;;-0.86;69.07;95321.47;5117823;28;20309;-62
2021/12/19 03:59:49;;;;;;;7.20;6.50;;;;;;;-0.80;68.91;95324.59;5118300;28;20251;-62
2021/12/19 04:02:25;;;;;;;6.77;6.07;;;;;;;-0.78;68.77;95325.34;5120694;28;20203;-63
2021/12/19 04:04:51;;;;;;;7.93;7.17;;;;;;;-0.91;69.10;95325.13;5120670;28;20291;-65
2021/12/19 04:07:17;;;;;;;8.03;6.47;;;;;;;-0.87;68.73;95317.22;5117957;28;20237;-62
2021/12/19 04:09:42;;;;;;;7.33;6.57;;;;;;;-0.92;68.90;95312.28;5118975;28;20219;-63
2021/12/19 04:12:09;;;;;;;7.33;6.40;;;;;;;-0.97;68.84;95322.81;5117929;28;20223;-63
2021/12/19 04:14:35;;;;;;;7.87;7.07;;;;;;;-1.05;69.06;95317.19;5117947;28;20225;-66
2021/12/19 04:17:01;;;;;;;6.87;6.17;;;;;;;-1.02;69.11;95311.88;5119023;28;20262;-62
2021/12/19 04:19:27;;;;;;;7.40;6.53;;;;;;;-1.05;68.59;95306.88;5118269;28;20226;-65
2021/12/19 04:21:53;;;;;;;6.90;6.27;;;;;;;-1.02;68.89;95304.16;5118983;28;20255;-62
2021/12/19 04:24:18;;;;;;;6.70;5.93;;;;;;;-0.90;68.15;95300.97;5120070;28;20229;-66
2021/12/19 04:26:44;;;;;;;6.57;5.67;;;;;;;-0.92;67.76;95305.38;5120958;28;20237;-65
2021/12/19 04:29:10;;;;;;;6.60;5.90;;;;;;;-0.95;68.05;95307.28;5118902;28;20211;-64
2021/12/19 04:31:36;;;;;;;5.97;5.43;;;;;;;-0.84;67.14;95299.84;5118490;28;20239;-64
2021/12/19 04:34:02;;;;;;;6.23;5.37;;;;;;;-0.86;66.79;95298.22;5116431;28;20258;-62
2021/12/19 04:36:33;;;;;;;6.00;5.40;;;;;;;-0.76;67.07;95300.28;5120921;28;20233;-66
2021/12/19 04:39:20;;;;;;;6.60;5.23;;;;;;;-0.63;66.50;95297.94;5120586;28;20219;-62
2021/12/19 05:00:19;;;;;;;6.67;5.67;;;;;;;-0.55;65.87;95274.28;5057959;28;20232;-61
2021/12/19 05:02:50;;;;;;;9.37;6.33;;;;;;;-0.61;66.04;95272.03;5041775;28;20216;-62
2021/12/19 05:16:04;;;;;;;7.30;6.17;;;;;;;-0.44;65.34;95277.16;5057598;28;20259;-66
2021/12/19 05:18:33;;;;;;;6.80;6.20;;;;;;;-0.49;65.68;95286.91;5101775;28;20222;-62
2021/12/19 05:21:04;;;;;;;7.10;5.67;;;;;;;-0.50;65.84;95285.22;5122772;27;20222;-64
2021/12/19 05:25:55;;;;;;;7.57;6.43;;;;;;;-0.40;65.68;95283.00;5123749;28;20239;-61
2021/12/19 05:28:20;;;;;;;7.00;6.17;;;;;;;-0.31;65.52;95285.94;5122878;28;20246;-61
2021/12/19 05:30:46;;;;;;;7.87;6.47;;;;;;;-0.37;65.66;95288.03;5118640;28;20230;-61
2021/12/19 05:33:12;;;;;;;7.00;6.30;;;;;;;-0.37;65.72;95286.28;5122744;28;20219;-65
2021/12/19 05:46:35;;;;;;;7.57;6.77;;;;;;;-0.31;65.44;95274.78;5122487;28;20264;-62
2021/12/19 05:49:04;;;;;;;7.10;6.40;;;;;;;-0.41;65.71;95271.00;5123479;27;20238;-61
2021/12/19 05:51:30;;;;;;;8.90;6.63;;;;;;;-0.33;65.85;95280.03;5121421;28;20219;-60
2021/12/19 05:53:56;;;;;;;7.53;6.50;;;;;;;-0.25;65.71;95284.78;5121335;28;20241;-62
2021/12/19 05:56:22;;;;;;;8.77;6.33;;;;;;;-0.27;65.16;95273.69;5117973;28;20204;-62
2021/12/19 05:58:47;;;;;;;7.23;6.43;;;;;;;-0.43;66.01;95273.66;5118357;28;20227;-61
2021/12/19 06:01:13;;;;;;;7.97;6.83;;;;;;;-0.46;65.98;95273.81;5121285;28;20279;-62
2021/12/19 06:03:38;;;;;;;8.27;6.73;;;;;;;-0.38;66.03;95266.50;5118975;28;20235;-61
2021/12/19 06:06:04;;;;;;;7.63;6.83;;;;;;;-0.40;66.08;95267.50;5118765;28;20309;-62
2021/12/19 06:08:29;;;;;;;8.47;7.17;;;;;;;-0.33;65.74;95266.28;5118687;28;20333;-61
2021/12/19 06:10:55;;;;;;;7.93;6.77;;;;;;;-0.34;65.67;95252.53;5123154;28;20231;-61
2021/12/19 06:13:20;;;;;;;7.20;6.50;;;;;;;-0.41;66.05;95256.31;5121573;28;20246;-61
2021/12/19 06:15:50;;;;;;;8.43;6.70;;;;;;;-0.33;65.72;95254.19;5120272;28;20240;-62
2021/12/19 06:18:15;;;;;;;7.23;6.53;;;;;;;-0.27;65.58;95253.88;5123283;27;20237;-61
2021/12/19 06:20:41;;;;;;;8.37;7.10;;;;;;;-0.28;65.50;95243.63;5121789;27;20227;-64
2021/12/19 06:23:08;;;;;;;8.00;6.43;;;;;;;-0.24;65.50;95242.53;5118763;28;20219;-61
2021/12/19 06:25:34;;;;;;;9.53;7.23;;;;;;;-0.13;65.16;95235.06;5120209;28;20238;-64
2021/12/19 06:27:59;;;;;;;7.67;6.70;;;;;;;-0.29;65.15;95229.88;5123487;28;20230;-63
2021/12/19 06:30:25;;;;;;;8.63;7.27;;;;;;;-0.36;65.33;95238.84;5118969;28;20246;-63
2021/12/19 06:32:50;;;;;;;9.53;7.27;;;;;;;-0.39;65.75;95233.84;5120792;28;20231;-63
2021/12/19 06:35:19;;;;;;;8.03;6.90;;;;;;;-0.40;65.32;95221.00;5120361;28;20286;-64
2021/12/19 06:37:49;;;;;;;9.47;7.60;;;;;;;-0.40;65.46;95239.06;5145645;27;20238;-63
2021/12/19 06:40:18;;;;;;;7.80;6.97;;;;;;;-0.41;65.53;95240.81;5122712;28;20214;-64
2021/12/19 06:42:44;;;;;;;10.33;8.20;;;;;;;-0.40;65.50;95229.59;5121239;28;20215;-65
2021/12/19 06:45:11;;;;;;;10.00;8.20;;;;;;;-0.40;65.55;95223.56;5122458;27;20223;-64
2021/12/19 06:47:37;;;;;;;8.67;7.43;;;;;;;-0.33;65.29;95222.34;5122154;28;20309;-62
2021/12/19 06:50:03;;;;;;;8.93;7.57;;;;;;;-0.37;65.51;95218.28;5118033;28;20298;-63
2021/12/19 06:52:29;;;;;;;9.63;7.87;;;;;;;-0.25;64.88;95217.59;5119215;28;20291;-65
2021/12/19 06:54:54;;;;;;;10.33;7.80;;;;;;;-0.30;65.21;95214.44;5114841;27;20211;-62
2021/12/19 06:57:20;;;;;;;10.63;7.67;;;;;;;-0.27;64.75;95211.69;5119339;28;20219;-65
2021/12/19 06:59:47;;;;;;;9.63;7.60;;;;;;;-0.20;64.55;95207.84;5122149;28;20279;-63
2021/12/19 07:02:16;;;;;;;12.03;8.20;;;;;;;-0.18;64.38;95211.19;5123328;27;20198;-63
2021/12/19 07:04:44;;;;;;;9.73;8.60;;;;;;;-0.08;64.41;95217.56;5122753;28;20279;-63
2021/12/19 07:07:10;;;;;;;8.90;7.90;;;;;;;0.00;64.22;95214.56;5119618;28;20222;-63
2021/12/19 07:09:35;;;;;;;9.20;8.13;;;;;;;0.07;63.82;95207.28;5117062;28;20215;-65
2021/12/19 07:14:46;;;;;;;10.50;8.30;;;;;;;0.31;63.28;95207.69;5121472;28;20206;-63
2021/12/19 07:17:12;;;;;;;8.67;7.77;;;;;;;0.26;63.28;95205.34;5120231;28;20203;-61
2021/12/19 07:19:37;;;;;;;11.27;8.50;;;;;;;0.41;62.95;95208.84;5119295;28;20220;-64
2021/12/19 07:22:03;;;;;;;10.33;8.33;;;;;;;0.49;62.89;95196.31;5119677;28;20219;-63
2021/12/19 07:24:29;;;;;;;8.67;7.77;;;;;;;0.64;62.34;95195.47;5120617;28;20211;-67
2021/12/19 07:26:55;;;;;;;10.57;8.30;;;;;;;0.77;62.02;95195.56;5121049;28;20247;-67
2021/12/19 07:29:20;;;;;;;8.67;7.67;;;;;;;0.91;61.25;95202.56;5122873;28;20207;-63
2021/12/19 07:31:46;;;;;;;9.47;7.60;;;;;;;0.96;60.93;95191.91;5146841;27;20303;-65
2021/12/19 07:34:12;;;;;;;10.20;8.00;;;;;;;1.02;60.86;95199.34;5123097;28;20234;-66
2021/12/19 07:36:47;;;;;;;8.43;7.20;;;;;;;0.97;60.56;95191.00;5123582;28;20219;-67
2021/12/19 07:39:25;;;;;;;9.47;7.40;;;;;;;0.83;60.53;95197.81;5120215;28;20280;-67
2021/12/19 07:41:51;;;;;;;9.67;7.80;;;;;;;0.99;60.24;95207.25;5117916;28;20267;-68
2021/12/19 07:44:16;;;;;;;9.57;7.83;;;;;;;1.17;59.32;95202.78;5121808;28;20211;-66
2021/12/19 07:46:43;;;;;;;10.77;8.33;;;;;;;1.05;59.46;95186.22;5121732;28;20227;-66
2021/12/19 07:49:08;;;;;;;9.67;7.47;;;;;;;0.90;60.20;95200.03;5121661;28;20234;-67
2021/12/19 07:51:34;;;;;;;10.33;7.77;;;;;;;0.89;59.58;95196.63;5122578;28;20235;-67
2021/12/19 07:54:01;;;;;;;8.83;7.93;;;;;;;0.86;59.66;95200.22;5122288;28;20226;-63
2021/12/19 07:56:26;;;;;;;8.60;6.90;;;;;;;0.96;59.81;95202.28;5124471;27;20231;-65
2021/12/19 07:58:52;;;;;;;7.70;6.90;;;;;;;1.05;59.66;95202.59;5121387;27;20198;-69
2021/12/19 08:01:17;;;;;;;9.50;7.53;;;;;;;0.99;59.75;95196.91;5122875;27;20223;-66
